createdAt,value
2019-01-17T00:02:04.479Z,95120.81
2019-01-17T00:04:44.156Z,95121.22
2019-01-17T00:07:14.430Z,95138.15
2019-01-17T00:10:01.406Z,95145.05
2019-01-17T00:12:31.667Z,95132.36
2019-01-17T00:15:01.936Z,95144.89
2019-01-17T00:17:35.070Z,95144.32
2019-01-17T00:20:07.143Z,95145.27
2019-01-17T00:22:37.401Z,95145.27
2019-01-17T00:25:18.791Z,95149.50
2019-01-17T00:27:49.054Z,95147.22
2019-01-17T00:30:22.085Z,95156.44
2019-01-17T00:32:58.381Z,95156.03
2019-01-17T00:35:45.082Z,95163.13
2019-01-17T00:38:31.664Z,95163.31
2019-01-17T00:41:04.972Z,95166.02
2019-01-17T00:43:38.048Z,95158.92
2019-01-17T00:46:14.227Z,95155.25
2019-01-17T00:48:53.664Z,95155.25
2019-01-17T00:51:23.927Z,95151.75
2019-01-17T00:54:09.575Z,95154.09
2019-01-17T00:56:45.637Z,95157.47
2019-01-17T00:59:28.171Z,95157.47
2019-01-17T01:02:04.498Z,95156.69
2019-01-17T01:04:40.465Z,95161.89
2019-01-17T01:07:27.153Z,95158.84
2019-01-17T01:10:13.936Z,95159.98
2019-01-17T01:12:47.308Z,95161.16
2019-01-17T01:15:25.686Z,95159.17
2019-01-17T01:18:11.170Z,95153.57
2019-01-17T01:20:50.498Z,95160.10
2019-01-17T01:23:26.940Z,95152.98
2019-01-17T01:26:03.657Z,95163.94
2019-01-17T01:28:33.969Z,95159.91
2019-01-17T01:31:04.234Z,95160.29
2019-01-17T01:33:40.669Z,95160.13
2019-01-17T01:36:10.944Z,95149.53
2019-01-17T01:38:43.911Z,95147.45
2019-01-17T01:41:14.217Z,95141.88
2019-01-17T01:43:47.452Z,95141.29
2019-01-17T01:46:23.942Z,95141.09
2019-01-17T01:49:03.550Z,95143.20
2019-01-17T01:51:45.942Z,95143.20
2019-01-17T01:54:14.573Z,95144.14
2019-01-17T01:56:43.201Z,95140.88
2019-01-17T01:59:11.962Z,95138.58
2019-01-17T02:01:40.661Z,95123.00
2019-01-17T02:04:09.300Z,95135.12
2019-01-17T02:06:38.056Z,95129.55
2019-01-17T02:09:08.665Z,95129.55
2019-01-17T02:11:37.405Z,95128.78
2019-01-17T02:14:07.195Z,95133.23
2019-01-17T02:16:35.904Z,95133.41
2019-01-17T02:19:04.804Z,95134.95
2019-01-17T02:21:33.503Z,95124.75
2019-01-17T02:24:02.215Z,95124.75
2019-01-17T02:26:30.936Z,95131.89
2019-01-17T02:28:59.628Z,95136.51
2019-01-17T02:31:28.262Z,95136.51
2019-01-17T02:33:56.957Z,95136.13
2019-01-17T02:36:25.838Z,95140.17
2019-01-17T02:38:54.578Z,95130.72
2019-01-17T02:41:23.206Z,95130.56
2019-01-17T02:43:52.072Z,95135.16
2019-01-17T02:46:20.907Z,95134.75
2019-01-17T02:48:49.627Z,95131.69
2019-01-17T02:51:18.369Z,95126.68
2019-01-17T02:53:46.995Z,95134.00
2019-01-17T02:56:15.627Z,95131.31
2019-01-17T02:58:44.373Z,95130.91
2019-01-17T03:01:13.076Z,95125.94
2019-01-17T03:03:41.680Z,95125.28
2019-01-17T03:06:10.339Z,95119.52
2019-01-17T03:08:38.998Z,95115.38
2019-01-17T03:11:07.691Z,95108.80
2019-01-17T03:13:36.398Z,95109.55
2019-01-17T03:16:05.039Z,95110.33
2019-01-17T03:18:33.737Z,95107.47
2019-01-17T03:21:02.478Z,95112.24
2019-01-17T03:23:31.116Z,95111.55
2019-01-17T03:25:59.734Z,95106.38
2019-01-17T03:28:28.478Z,95101.19
2019-01-17T03:30:57.188Z,95093.11
2019-01-17T03:33:25.841Z,95095.42
2019-01-17T03:35:54.581Z,95099.47
2019-01-17T03:38:23.275Z,95102.10
2019-01-17T03:40:51.988Z,95100.91
2019-01-17T03:43:20.667Z,95099.61
2019-01-17T03:45:49.296Z,95102.79
2019-01-17T03:48:17.988Z,95106.56
2019-01-17T03:50:46.713Z,95095.01
2019-01-17T03:53:15.349Z,95095.17
2019-01-17T03:55:44.256Z,95092.48
2019-01-17T03:58:12.927Z,95090.19
2019-01-17T04:00:41.561Z,95093.28
2019-01-17T04:03:10.201Z,95093.89
2019-01-17T04:05:39.064Z,95096.80
2019-01-17T04:08:07.689Z,95096.84
2019-01-17T04:10:36.314Z,95099.77
2019-01-17T04:13:05.233Z,95100.30
2019-01-17T04:15:34.048Z,95099.73
2019-01-17T04:18:03.057Z,95112.94
2019-01-17T04:20:31.707Z,95115.64
2019-01-17T04:23:00.413Z,95120.89
2019-01-17T04:25:29.328Z,95126.41
2019-01-17T04:27:57.965Z,95124.88
2019-01-17T04:30:26.610Z,95121.60
2019-01-17T04:32:55.270Z,95124.82
2019-01-17T04:35:23.980Z,95127.06
2019-01-17T04:37:52.623Z,95129.28
2019-01-17T04:40:21.287Z,95135.77
2019-01-17T04:42:50.000Z,95135.91
2019-01-17T04:45:18.628Z,95132.21
2019-01-17T04:47:47.389Z,95125.60
2019-01-17T04:50:16.090Z,95127.45
2019-01-17T04:52:44.715Z,95125.50
2019-01-17T04:55:14.664Z,95125.17
2019-01-17T04:57:43.288Z,95133.05
2019-01-17T05:00:17.838Z,95132.09
2019-01-17T05:02:46.535Z,95136.30
2019-01-17T05:05:15.369Z,95137.05
2019-01-17T05:07:44.173Z,95141.25
2019-01-17T05:10:15.471Z,95140.62
2019-01-17T05:12:44.111Z,95140.67
2019-01-17T05:15:13.625Z,95137.74
2019-01-17T05:17:42.366Z,95146.21
2019-01-17T05:20:15.923Z,95145.97
2019-01-17T05:22:44.550Z,95156.02
2019-01-17T05:25:13.512Z,95151.50
2019-01-17T05:27:42.144Z,95150.44
2019-01-17T05:30:16.568Z,95144.97
2019-01-17T05:32:45.334Z,95150.45
2019-01-17T05:35:14.469Z,95137.66
2019-01-17T05:37:43.313Z,95141.51
2019-01-17T05:40:17.299Z,95140.20
2019-01-17T05:42:46.101Z,95139.29
2019-01-17T05:45:15.729Z,95134.53
2019-01-17T05:47:44.405Z,95140.91
2019-01-17T05:50:15.464Z,95132.03
2019-01-17T05:52:44.262Z,95125.95
2019-01-17T05:55:19.761Z,95129.59
2019-01-17T05:57:43.666Z,95131.36
2019-01-17T06:00:17.837Z,95133.69
2019-01-17T06:02:46.659Z,95126.62
2019-01-17T06:05:16.291Z,95128.27
2019-01-17T06:07:45.237Z,95127.27
2019-01-17T06:10:13.958Z,95134.92
2019-01-17T06:12:42.603Z,95133.94
2019-01-17T06:15:16.762Z,95130.81
2019-01-17T06:17:45.377Z,95132.67
2019-01-17T06:20:16.320Z,95129.50
2019-01-17T06:22:44.984Z,95118.68
2019-01-17T06:25:13.781Z,95119.16
2019-01-17T06:27:42.483Z,95113.51
2019-01-17T06:30:14.266Z,95116.61
2019-01-17T06:32:43.763Z,95109.68
2019-01-17T06:35:13.014Z,95115.26
2019-01-17T06:37:41.900Z,95114.83
2019-01-17T06:40:13.914Z,95112.66
2019-01-17T06:42:42.812Z,95115.49
2019-01-17T06:45:11.698Z,95120.27
2019-01-17T06:47:40.323Z,95117.79
2019-01-17T06:50:10.562Z,95113.23
2019-01-17T06:52:39.307Z,95120.27
2019-01-17T06:55:08.639Z,95116.44
2019-01-17T06:57:37.345Z,95120.78
2019-01-17T07:00:15.000Z,95123.81
2019-01-17T07:02:44.097Z,95119.07
2019-01-17T07:05:14.004Z,95115.34
2019-01-17T07:07:42.785Z,95118.17
2019-01-17T07:10:16.658Z,95116.76
2019-01-17T07:12:46.219Z,95126.70
2019-01-17T07:15:15.267Z,95125.55
2019-01-17T07:17:43.927Z,95125.61
2019-01-17T07:20:15.066Z,95130.65
2019-01-17T07:22:44.036Z,95131.61
2019-01-17T07:25:13.070Z,95137.60
2019-01-17T07:27:41.735Z,95138.01
2019-01-17T07:30:16.137Z,95132.90
2019-01-17T07:32:44.768Z,95134.88
2019-01-17T07:35:13.559Z,95144.14
2019-01-17T07:37:42.895Z,95148.36
2019-01-17T07:40:12.294Z,95152.44
2019-01-17T07:42:41.019Z,95153.70
2019-01-17T07:45:24.231Z,95157.88
2019-01-17T07:47:52.922Z,95162.50
2019-01-17T07:50:21.636Z,95163.27
2019-01-17T07:52:50.296Z,95162.41
2019-01-17T07:55:18.925Z,95167.77
2019-01-17T07:57:47.559Z,95161.20
2019-01-17T08:00:19.187Z,95168.45
2019-01-17T08:02:47.810Z,95169.63
2019-01-17T08:05:16.598Z,95173.08
2019-01-17T08:07:45.228Z,95162.36
2019-01-17T08:10:16.260Z,95167.48
2019-01-17T08:12:45.061Z,95176.02
2019-01-17T08:15:14.680Z,95172.22
2019-01-17T08:17:43.403Z,95174.69
2019-01-17T08:20:22.921Z,95180.03
2019-01-17T08:22:51.717Z,95181.80
2019-01-17T08:25:20.710Z,95179.06
2019-01-17T08:27:49.481Z,95188.84
2019-01-17T08:30:26.051Z,95186.48
2019-01-17T08:32:54.712Z,95184.48
2019-01-17T08:35:23.507Z,95190.47
2019-01-17T08:37:52.138Z,95185.97
2019-01-17T08:40:26.528Z,95182.66
2019-01-17T08:42:58.512Z,95183.98
2019-01-17T08:45:27.211Z,95187.95
2019-01-17T08:47:56.033Z,95182.70
2019-01-17T08:50:24.734Z,95188.30
2019-01-17T08:52:53.392Z,95189.08
2019-01-17T08:55:22.103Z,95188.58
2019-01-17T08:57:50.803Z,95193.63
2019-01-17T09:00:24.735Z,95189.87
2019-01-17T09:02:53.508Z,95191.31
2019-01-17T09:05:22.327Z,95190.30
2019-01-17T09:07:50.960Z,95191.80
2019-01-17T09:10:28.236Z,95181.41
2019-01-17T09:12:56.857Z,95181.98
2019-01-17T09:15:28.269Z,95179.31
2019-01-17T09:17:57.035Z,95177.98
2019-01-17T09:20:25.672Z,95177.32
2019-01-17T09:22:54.313Z,95178.88
2019-01-17T09:25:22.985Z,95180.84
2019-01-17T09:27:51.647Z,95179.02
2019-01-17T09:30:21.733Z,95175.69
2019-01-17T09:32:50.370Z,95174.46
2019-01-17T09:35:19.513Z,95176.59
2019-01-17T09:37:48.221Z,95169.73
2019-01-17T09:40:20.495Z,95168.16
2019-01-17T09:42:49.202Z,95161.36
2019-01-17T09:45:18.138Z,95156.48
2019-01-17T09:47:46.784Z,95161.58
2019-01-17T09:50:20.861Z,95155.00
2019-01-17T09:52:49.775Z,95151.86
2019-01-17T09:55:18.403Z,95153.63
2019-01-17T09:57:47.227Z,95146.81
2019-01-17T10:00:18.703Z,95145.37
2019-01-17T10:02:47.326Z,95142.84
2019-01-17T10:05:16.033Z,95140.00
2019-01-17T10:07:44.792Z,95143.52
2019-01-17T10:10:18.826Z,95132.98
2019-01-17T10:12:47.547Z,95125.52
2019-01-17T10:15:25.103Z,95123.49
2019-01-17T10:18:24.049Z,95121.42
2019-01-17T10:21:07.422Z,95112.78
2019-01-17T10:23:50.892Z,95110.61
2019-01-17T10:26:28.318Z,95105.95
2019-01-17T10:29:08.614Z,95105.63
2019-01-17T10:31:55.241Z,95100.60
2019-01-17T10:34:38.898Z,95094.01
2019-01-17T10:37:34.680Z,95099.00
2019-01-17T10:40:28.549Z,95093.41
2019-01-17T10:43:18.389Z,95087.64
2019-01-17T10:46:01.901Z,95079.81
2019-01-17T10:48:33.588Z,95082.83
2019-01-17T10:51:22.146Z,95076.04
2019-01-17T10:54:03.213Z,95069.36
2019-01-17T10:56:41.313Z,95072.36
2019-01-17T10:59:16.878Z,95071.25
2019-01-17T11:01:51.254Z,95062.56
2019-01-17T11:04:37.774Z,95060.70
2019-01-17T11:07:15.354Z,95059.28
2019-01-17T11:10:08.983Z,95050.45
2019-01-17T11:12:57.093Z,95052.08
2019-01-17T11:15:34.564Z,95053.08
2019-01-17T11:18:30.405Z,95053.17
2019-01-17T11:21:30.863Z,95050.19
2019-01-17T11:24:19.172Z,95046.95
2019-01-17T11:26:50.838Z,95038.29
2019-01-17T11:29:28.012Z,95041.69
2019-01-17T11:32:22.742Z,95040.56
2019-01-17T11:35:15.443Z,95032.48
2019-01-17T11:37:47.525Z,95029.84
2019-01-17T11:40:24.986Z,95024.13
2019-01-17T11:43:19.473Z,95028.52
2019-01-17T11:46:10.574Z,95028.16
2019-01-17T11:48:54.179Z,95018.03
2019-01-17T11:51:34.021Z,95018.81
2019-01-17T11:54:20.397Z,95013.20
2019-01-17T11:57:12.790Z,95011.29
2019-01-17T12:00:02.878Z,95009.45
2019-01-17T12:02:39.256Z,95000.75
2019-01-17T12:05:07.982Z,94996.17
2019-01-17T12:07:36.608Z,94998.99
2019-01-17T12:10:06.835Z,94996.17
2019-01-17T12:12:35.985Z,94989.58
2019-01-17T12:15:06.996Z,94983.55
2019-01-17T12:17:35.719Z,94990.00
2019-01-17T12:20:07.061Z,94988.91
2019-01-17T12:22:35.689Z,94989.92
2019-01-17T12:25:05.286Z,94978.37
2019-01-17T12:27:34.029Z,94980.30
2019-01-17T12:30:02.652Z,94979.22
2019-01-17T12:32:31.394Z,94975.83
2019-01-17T12:35:00.407Z,94978.37
2019-01-17T12:37:29.123Z,94975.66
2019-01-17T12:39:57.819Z,94976.17
2019-01-17T12:42:26.501Z,94977.54
2019-01-17T12:44:55.216Z,94978.72
2019-01-17T12:47:23.926Z,94974.19
2019-01-17T12:49:52.678Z,94973.59
2019-01-17T12:52:21.324Z,94978.72
2019-01-17T12:54:50.064Z,94976.70
2019-01-17T12:57:18.836Z,94977.36
2019-01-17T12:59:47.475Z,94972.19
2019-01-17T13:02:16.179Z,94972.75
2019-01-17T13:04:45.064Z,94965.48
2019-01-17T13:07:13.773Z,94960.77
2019-01-17T13:09:42.414Z,94969.61
2019-01-17T13:12:11.187Z,94959.50
2019-01-17T13:14:39.983Z,94968.00
2019-01-17T13:17:08.651Z,94972.98
2019-01-17T13:19:37.322Z,94974.39
2019-01-17T13:22:06.262Z,94972.05
2019-01-17T13:24:34.971Z,94970.41
2019-01-17T13:27:03.749Z,94973.03
2019-01-17T13:29:32.376Z,94974.53
2019-01-17T13:32:01.057Z,94973.45
2019-01-17T13:34:29.984Z,94973.28
2019-01-17T13:36:58.607Z,94969.95
2019-01-17T13:39:27.322Z,94971.91
2019-01-17T13:41:56.009Z,94973.97
2019-01-17T13:44:24.736Z,94973.80
2019-01-17T13:46:53.461Z,94970.97
2019-01-17T13:49:22.205Z,94970.72
2019-01-17T13:51:50.829Z,94967.55
2019-01-17T13:54:19.472Z,94970.45
2019-01-17T13:56:48.326Z,94976.48
2019-01-17T13:59:17.033Z,94973.56
2019-01-17T14:01:45.688Z,94968.63
2019-01-17T14:04:14.615Z,94977.11
2019-01-17T14:06:43.241Z,94973.94
2019-01-17T14:09:11.947Z,94963.11
2019-01-17T14:11:40.631Z,94976.63
2019-01-17T14:14:09.235Z,94963.47
2019-01-17T14:16:37.930Z,94967.27
2019-01-17T14:19:06.693Z,94969.92
2019-01-17T14:21:35.397Z,94969.87
2019-01-17T14:24:04.053Z,94965.69
2019-01-17T14:26:32.915Z,94963.76
2019-01-17T14:29:01.643Z,94960.34
2019-01-17T14:31:30.351Z,94959.98
2019-01-17T14:33:59.029Z,94951.71
2019-01-17T14:36:27.734Z,94951.05
2019-01-17T14:38:56.441Z,94952.19
2019-01-17T14:41:25.120Z,94951.02
2019-01-17T14:43:53.754Z,94956.63
2019-01-17T14:46:22.458Z,94959.59
2019-01-17T14:48:51.249Z,94955.09
2019-01-17T14:51:19.871Z,94954.60
2019-01-17T14:53:48.505Z,94957.66
2019-01-17T14:56:17.256Z,94954.62
2019-01-17T14:58:45.882Z,94956.23
2019-01-17T15:01:14.582Z,94955.83
2019-01-17T15:03:43.323Z,94952.44
2019-01-17T15:06:11.952Z,94960.46
2019-01-17T15:08:40.577Z,94954.75
2019-01-17T15:11:09.336Z,94954.16
2019-01-17T15:13:38.025Z,94956.91
2019-01-17T15:16:06.653Z,94962.84
2019-01-17T15:18:35.330Z,94960.21
2019-01-17T15:21:04.039Z,94958.92
2019-01-17T15:23:32.724Z,94962.71
2019-01-17T15:26:01.396Z,94957.94
2019-01-17T15:28:30.085Z,94962.76
2019-01-17T15:30:58.834Z,94963.09
2019-01-17T15:33:27.566Z,94960.24
2019-01-17T15:35:56.208Z,94962.70
2019-01-17T15:38:24.899Z,94964.54
2019-01-17T15:40:53.583Z,94965.05
2019-01-17T15:43:31.317Z,94963.58
2019-01-17T15:46:00.228Z,94961.57
2019-01-17T15:48:28.961Z,94967.69
2019-01-17T15:50:57.695Z,94966.91
2019-01-17T15:53:26.293Z,94959.69
2019-01-17T15:55:55.052Z,94966.72
2019-01-17T15:58:23.767Z,94962.30
2019-01-17T16:00:52.393Z,94965.07
2019-01-17T16:03:21.151Z,94966.88
2019-01-17T16:05:49.848Z,94968.51
2019-01-17T16:08:18.559Z,94965.45
2019-01-17T16:10:47.235Z,94969.27
2019-01-17T16:13:15.933Z,94972.43
2019-01-17T16:15:44.549Z,94971.37
2019-01-17T16:18:13.437Z,94974.20
2019-01-17T16:20:42.147Z,94968.02
2019-01-17T16:23:10.899Z,94973.42
2019-01-17T16:25:39.826Z,94971.47
2019-01-17T16:28:08.449Z,94967.16
2019-01-17T16:30:37.153Z,94967.06
2019-01-17T16:33:05.892Z,94968.28
2019-01-17T16:35:34.522Z,94973.75
2019-01-17T16:38:03.158Z,94975.23
2019-01-17T16:40:31.886Z,94979.23
2019-01-17T16:43:00.514Z,94984.72
2019-01-17T16:45:35.213Z,94979.23
2019-01-17T16:47:59.810Z,94972.92
2019-01-17T16:50:28.614Z,94979.40
2019-01-17T16:52:57.247Z,94978.28
2019-01-17T16:55:26.186Z,94976.06
2019-01-17T16:57:54.910Z,94976.39
2019-01-17T17:00:38.483Z,94976.87
2019-01-17T17:03:07.104Z,94981.16
2019-01-17T17:05:35.809Z,94987.69
2019-01-17T17:08:05.091Z,94987.39
2019-01-17T17:10:33.920Z,94982.80
2019-01-17T17:13:02.557Z,94986.13
2019-01-17T17:15:32.395Z,94988.46
2019-01-17T17:18:01.093Z,94982.86
2019-01-17T17:20:30.005Z,94990.10
2019-01-17T17:22:58.712Z,94994.97
2019-01-17T17:25:27.406Z,94993.51
2019-01-17T17:27:56.117Z,94992.62
2019-01-17T17:30:27.099Z,94998.06
2019-01-17T17:32:55.730Z,94994.87
2019-01-17T17:35:24.452Z,94998.95
2019-01-17T17:37:53.428Z,95007.30
2019-01-17T17:40:24.532Z,95006.17
2019-01-17T17:42:53.236Z,95003.39
2019-01-17T17:45:21.914Z,94999.17
2019-01-17T17:47:50.533Z,94999.44
2019-01-17T17:50:21.341Z,95000.49
2019-01-17T17:52:50.218Z,94998.73
2019-01-17T17:55:19.851Z,94995.09
2019-01-17T17:57:48.693Z,95005.06
2019-01-17T18:00:27.109Z,95012.27
2019-01-17T18:02:56.285Z,95002.78
2019-01-17T18:05:24.909Z,94996.70
2019-01-17T18:07:53.686Z,95002.58
2019-01-17T18:10:22.378Z,95008.41
2019-01-17T18:12:51.082Z,95010.36
2019-01-17T18:15:20.026Z,95002.96
2019-01-17T18:17:48.927Z,95009.35
2019-01-17T18:20:18.836Z,95007.72
2019-01-17T18:22:47.569Z,95003.56
2019-01-17T18:25:16.204Z,95004.72
2019-01-17T18:27:44.895Z,95005.30
2019-01-17T18:30:27.096Z,95012.02
2019-01-17T18:32:55.718Z,95012.73
2019-01-17T18:35:24.466Z,95003.56
2019-01-17T18:37:53.403Z,95007.99
2019-01-17T18:40:22.430Z,95012.98
2019-01-17T18:42:51.071Z,95009.34
2019-01-17T18:45:22.422Z,95009.00
2019-01-17T18:47:51.379Z,95010.39
2019-01-17T18:50:25.542Z,95007.94
2019-01-17T18:52:54.410Z,95010.22
2019-01-17T18:55:23.035Z,95011.46
2019-01-17T18:57:51.666Z,95012.35
2019-01-17T19:00:27.307Z,95015.83
2019-01-17T19:02:56.340Z,95020.28
2019-01-17T19:05:25.064Z,95026.14
2019-01-17T19:07:53.748Z,95023.66
2019-01-17T19:10:22.753Z,95024.85
2019-01-17T19:12:51.755Z,95022.20
2019-01-17T19:15:23.058Z,95031.68
2019-01-17T19:17:51.788Z,95032.89
2019-01-17T19:20:21.299Z,95037.52
2019-01-17T19:22:50.010Z,95033.64
2019-01-17T19:25:19.130Z,95038.47
2019-01-17T19:27:47.774Z,95035.62
2019-01-17T19:30:24.433Z,95027.89
2019-01-17T19:32:53.290Z,95034.06
2019-01-17T19:35:21.930Z,95033.88
2019-01-17T19:37:50.620Z,95032.33
2019-01-17T19:40:27.447Z,95028.88
2019-01-17T19:42:56.176Z,95032.33
2019-01-17T19:45:24.802Z,95039.53
2019-01-17T19:47:53.507Z,95035.30
2019-01-17T19:50:27.991Z,95039.33
2019-01-17T19:52:56.711Z,95037.56
2019-01-17T19:55:25.465Z,95038.94
2019-01-17T19:57:54.090Z,95034.73
2019-01-17T20:00:23.015Z,95046.28
2019-01-17T20:02:52.070Z,95043.42
2019-01-17T20:05:26.561Z,95037.06
2019-01-17T20:07:55.271Z,95040.72
2019-01-17T20:10:32.525Z,95040.72
2019-01-17T20:13:01.252Z,95043.01
2019-01-17T20:15:30.178Z,95042.05
2019-01-17T20:17:58.953Z,95021.08
2019-01-17T20:20:31.791Z,95046.70
2019-01-17T20:22:58.050Z,95043.23
2019-01-17T20:25:26.694Z,95042.25
2019-01-17T20:27:55.684Z,95036.83
2019-01-17T20:30:27.069Z,95032.47
2019-01-17T20:32:57.313Z,95032.47
2019-01-17T20:35:26.202Z,95030.54
2019-01-17T20:37:54.868Z,95032.03
2019-01-17T20:40:24.809Z,95025.30
2019-01-17T20:42:53.804Z,95030.53
2019-01-17T20:45:22.736Z,95030.95
2019-01-17T20:47:51.583Z,95029.79
2019-01-17T20:50:23.056Z,95031.73
2019-01-17T20:52:51.695Z,95031.92
2019-01-17T20:55:20.337Z,95031.72
2019-01-17T20:57:50.586Z,95036.15
2019-01-17T21:00:24.779Z,95033.45
2019-01-17T21:02:53.419Z,95040.39
2019-01-17T21:05:22.465Z,95033.09
2019-01-17T21:07:51.103Z,95036.94
2019-01-17T21:10:20.218Z,95038.30
2019-01-17T21:12:49.190Z,95040.21
2019-01-17T21:15:17.828Z,95034.24
2019-01-17T21:17:46.480Z,95037.16
2019-01-17T21:20:15.675Z,95031.37
2019-01-17T21:22:44.298Z,95028.32
2019-01-17T21:25:19.987Z,95031.79
2019-01-17T21:27:48.620Z,95038.89
2019-01-17T21:30:25.414Z,95028.34
2019-01-17T21:32:54.298Z,95028.34
2019-01-17T21:35:23.307Z,95038.52
2019-01-17T21:37:54.777Z,95038.33
2019-01-17T21:40:24.655Z,95040.25
2019-01-17T21:42:53.353Z,95036.39
2019-01-17T21:45:22.105Z,95037.56
2019-01-17T21:47:50.815Z,95035.62
2019-01-17T21:50:31.393Z,95033.33
2019-01-17T21:53:00.047Z,95025.42
2019-01-17T21:55:28.763Z,95025.42
2019-01-17T21:57:57.673Z,95033.70
2019-01-17T22:00:28.129Z,95033.70
2019-01-17T22:02:56.968Z,95033.89
2019-01-17T22:05:25.643Z,95029.29
2019-01-17T22:07:54.365Z,95012.00
2019-01-17T22:10:23.205Z,95031.78
2019-01-17T22:12:52.030Z,95023.33
2019-01-17T22:15:32.990Z,95006.59
2019-01-17T22:18:01.629Z,95024.68
2019-01-17T22:20:30.331Z,95031.58
2019-01-17T22:22:59.104Z,95026.20
2019-01-17T22:25:27.719Z,95023.08
2019-01-17T22:27:56.365Z,95024.63
2019-01-17T22:30:29.758Z,95022.72
2019-01-17T22:32:58.562Z,95029.42
2019-01-17T22:35:27.210Z,95023.27
2019-01-17T22:37:55.852Z,95028.44
2019-01-17T22:40:24.589Z,95025.13
2019-01-17T22:42:53.300Z,95012.08
2019-01-17T22:45:24.873Z,95018.25
2019-01-17T22:47:53.521Z,95016.91
2019-01-17T22:50:22.223Z,95027.22
2019-01-17T22:52:51.613Z,95011.65
2019-01-17T22:55:20.327Z,95010.09
2019-01-17T22:57:49.182Z,95017.02
2019-01-17T23:00:31.195Z,95015.10
2019-01-17T23:02:59.843Z,95016.24
2019-01-17T23:05:28.547Z,95014.92
2019-01-17T23:07:57.293Z,95004.57
2019-01-17T23:10:25.943Z,95006.68
2019-01-17T23:12:54.664Z,95005.70
2019-01-17T23:15:23.588Z,95002.03
2019-01-17T23:17:52.301Z,95005.14
2019-01-17T23:20:20.941Z,95004.79
2019-01-17T23:22:49.781Z,95002.66
2019-01-17T23:25:18.425Z,95003.23
2019-01-17T23:27:47.110Z,94998.63
2019-01-17T23:30:15.845Z,94999.77
2019-01-17T23:32:44.548Z,94996.89
2019-01-17T23:35:13.181Z,94988.83
2019-01-17T23:37:58.013Z,94991.34
2019-01-17T23:40:26.692Z,94994.41
2019-01-17T23:42:55.447Z,94988.09
2019-01-17T23:45:24.168Z,94980.17
2019-01-17T23:47:52.808Z,94978.61
2019-01-17T23:50:21.481Z,94968.49
2019-01-17T23:52:50.199Z,94985.00
2019-01-17T23:55:18.842Z,94980.19
2019-01-17T23:57:47.530Z,94976.89
